sensor_id;sensor_type;location;lat;lon;timestamp;pressure;altitude;pressure_sealevel;temperature;humidity
59987;BME280;46181;51.498;5.392;2023-05-23T00:03:52;101777;;;20.04;56.92676
59987;BME280;46181;51.498;5.392;2023-05-23T00:08:22;101780.7;;;20.12;56.87988
59987;BME280;46181;51.498;5.392;2023-05-23T00:12:52;101778.4;;;20.21;56.66016
59987;BME280;46181;51.498;5.392;2023-05-23T00:17:22;101782.3;;;20.27;56.59766
59987;BME280;46181;51.498;5.392;2023-05-23T00:21:54;101783.2;;;20.3;56.46387
59987;BME280;46181;51.498;5.392;2023-05-23T00:26:22;101786.2;;;20.3;56.2793
59987;BME280;46181;51.498;5.392;2023-05-23T00:30:52;101791.8;;;20.24;56.30762
59987;BME280;46181;51.498;5.392;2023-05-23T00:35:22;101789.7;;;20.21;56.20996
59987;BME280;46181;51.498;5.392;2023-05-23T00:39:52;101791.3;;;20.2;56.30176
59987;BME280;46181;51.498;5.392;2023-05-23T00:44:22;101791.8;;;20.24;56.14648
59987;BME280;46181;51.498;5.392;2023-05-23T00:48:52;101801.7;;;20.24;56.08887
59987;BME280;46181;51.498;5.392;2023-05-23T00:53:22;101795.9;;;20.24;55.92676
59987;BME280;46181;51.498;5.392;2023-05-23T00:57:53;101803.4;;;20.24;55.8584
59987;BME280;46181;51.498;5.392;2023-05-23T01:02:22;101800.7;;;20.24;55.78906
59987;BME280;46181;51.498;5.392;2023-05-23T01:06:52;101807.6;;;20.22;55.57813
59987;BME280;46181;51.498;5.392;2023-05-23T01:11:29;101808;;;20.08;55.61816
59987;BME280;46181;51.498;5.392;2023-05-23T01:15:57;101808.7;;;20.06;55.55859
59987;BME280;46181;51.498;5.392;2023-05-23T01:20:26;101809.3;;;20.03;55.45117
59987;BME280;46181;51.498;5.392;2023-05-23T01:24:59;101816.5;;;19.99;55.41113
59987;BME280;46181;51.498;5.392;2023-05-23T01:29:28;101814.8;;;19.9;55.1709
59987;BME280;46181;51.498;5.392;2023-05-23T01:33:54;101825.7;;;19.9;54.94043
59987;BME280;46181;51.498;5.392;2023-05-23T01:38:22;101833.9;;;19.87;54.91309
59987;BME280;46181;51.498;5.392;2023-05-23T01:42:53;101837.4;;;19.86;54.93555
59987;BME280;46181;51.498;5.392;2023-05-23T01:47:23;101835.1;;;19.86;54.91211
59987;BME280;46181;51.498;5.392;2023-05-23T01:51:53;101832.7;;;19.87;54.95898
59987;BME280;46181;51.498;5.392;2023-05-23T01:56:22;101835.3;;;19.93;54.89746
59987;BME280;46181;51.498;5.392;2023-05-23T02:00:52;101835.2;;;19.9;54.71094
59987;BME280;46181;51.498;5.392;2023-05-23T02:05:22;101840;;;19.8;55.04297
59987;BME280;46181;51.498;5.392;2023-05-23T02:09:52;101840.9;;;19.73;55.21777
59987;BME280;46181;51.498;5.392;2023-05-23T02:14:23;101844.3;;;19.72;55.43652
59987;BME280;46181;51.498;5.392;2023-05-23T02:18:52;101851;;;19.72;55.4248
59987;BME280;46181;51.498;5.392;2023-05-23T02:23:22;101857.2;;;19.68;55.53516
59987;BME280;46181;51.498;5.392;2023-05-23T02:27:52;101861.6;;;19.61;55.80273
59987;BME280;46181;51.498;5.392;2023-05-23T02:32:22;101866.6;;;19.58;55.97168
59987;BME280;46181;51.498;5.392;2023-05-23T02:36:52;101866;;;19.53;56.20605
59987;BME280;46181;51.498;5.392;2023-05-23T02:41:22;101857.5;;;19.51;56.36328
59987;BME280;46181;51.498;5.392;2023-05-23T02:45:52;101856.2;;;19.45;56.60938
59987;BME280;46181;51.498;5.392;2023-05-23T02:50:23;101856.1;;;19.47;56.66895
59987;BME280;46181;51.498;5.392;2023-05-23T02:54:52;101864.5;;;19.51;56.54785
59987;BME280;46181;51.498;5.392;2023-05-23T02:59:22;101866.7;;;19.55;56.43848
59987;BME280;46181;51.498;5.392;2023-05-23T03:03:52;101860;;;19.54;56.13672
59987;BME280;46181;51.498;5.392;2023-05-23T03:08:22;101861.9;;;19.47;56.0127
59987;BME280;46181;51.498;5.392;2023-05-23T03:12:52;101861.8;;;19.43;55.89453
59987;BME280;46181;51.498;5.392;2023-05-23T03:17:23;101864;;;19.41;55.92578
59987;BME280;46181;51.498;5.392;2023-05-23T03:21:52;101868.9;;;19.44;55.82617
59987;BME280;46181;51.498;5.392;2023-05-23T03:26:22;101865.6;;;19.45;55.5752
59987;BME280;46181;51.498;5.392;2023-05-23T03:30:52;101871.5;;;19.42;55.62891
59987;BME280;46181;51.498;5.392;2023-05-23T03:35:22;101874.8;;;19.45;55.55078
59987;BME280;46181;51.498;5.392;2023-05-23T03:39:52;101880.2;;;19.5;55.56934
59987;BME280;46181;51.498;5.392;2023-05-23T03:44:22;101873.8;;;19.52;55.35254
59987;BME280;46181;51.498;5.392;2023-05-23T03:48:52;101879.3;;;19.51;55.39746
59987;BME280;46181;51.498;5.392;2023-05-23T03:53:22;101884;;;19.56;55.49707
59987;BME280;46181;51.498;5.392;2023-05-23T03:57:52;101885.1;;;19.62;55.29688
59987;BME280;46181;51.498;5.392;2023-05-23T04:02:22;101887;;;19.65;55.2207
59987;BME280;46181;51.498;5.392;2023-05-23T04:06:52;101887.1;;;19.61;55.22754
59987;BME280;46181;51.498;5.392;2023-05-23T04:11:22;101893.6;;;19.56;55.11719
59987;BME280;46181;51.498;5.392;2023-05-23T04:15:53;101894.2;;;19.52;55.19238
59987;BME280;46181;51.498;5.392;2023-05-23T04:20:23;101895.1;;;19.54;55.36621
59987;BME280;46181;51.498;5.392;2023-05-23T04:24:52;101901;;;19.58;55.21289
59987;BME280;46181;51.498;5.392;2023-05-23T04:29:22;101907.8;;;19.61;55.21582
59987;BME280;46181;51.498;5.392;2023-05-23T04:33:52;101911.3;;;19.67;55.15234
59987;BME280;46181;51.498;5.392;2023-05-23T04:38:22;101915.9;;;19.62;55.22852
59987;BME280;46181;51.498;5.392;2023-05-23T04:42:52;101916.2;;;19.58;55.24707
59987;BME280;46181;51.498;5.392;2023-05-23T04:47:22;101917.4;;;19.57;55.11816
59987;BME280;46181;51.498;5.392;2023-05-23T04:51:52;101924.1;;;19.56;55.30078
59987;BME280;46181;51.498;5.392;2023-05-23T04:56:22;101917.4;;;19.6;55.18066
59987;BME280;46181;51.498;5.392;2023-05-23T05:00:52;101933.4;;;19.61;55.13574
59987;BME280;46181;51.498;5.392;2023-05-23T05:05:23;101933.5;;;19.54;55.0791
59987;BME280;46181;51.498;5.392;2023-05-23T05:09:52;101937.1;;;19.46;55.08203
59987;BME280;46181;51.498;5.392;2023-05-23T05:14:22;101940.4;;;19.41;55.41992
59987;BME280;46181;51.498;5.392;2023-05-23T05:18:52;101945.3;;;19.44;55.23926
59987;BME280;46181;51.498;5.392;2023-05-23T05:23:25;101953.9;;;19.43;55.2627
59987;BME280;46181;51.498;5.392;2023-05-23T05:27:52;101958.3;;;19.36;55.23047
59987;BME280;46181;51.498;5.392;2023-05-23T05:32:22;101953.4;;;19.36;55.0918
59987;BME280;46181;51.498;5.392;2023-05-23T05:36:53;101972.1;;;19.3;54.94629
59987;BME280;46181;51.498;5.392;2023-05-23T05:41:23;101973.4;;;19.2;54.96875
59987;BME280;46181;51.498;5.392;2023-05-23T05:45:52;101973.1;;;19.24;55.02051
59987;BME280;46181;51.498;5.392;2023-05-23T05:50:23;101982.4;;;19.22;54.8457
59987;BME280;46181;51.498;5.392;2023-05-23T05:54:52;101984.5;;;19.19;54.68066
59987;BME280;46181;51.498;5.392;2023-05-23T05:59:23;101986.2;;;19.18;54.70117
59987;BME280;46181;51.498;5.392;2023-05-23T06:03:52;101990.5;;;19.12;54.34961
59987;BME280;46181;51.498;5.392;2023-05-23T06:08:23;101997.6;;;19.04;54.60547
59987;BME280;46181;51.498;5.392;2023-05-23T06:12:52;102007.4;;;19.04;54.40918
59987;BME280;46181;51.498;5.392;2023-05-23T06:17:23;102012.6;;;18.97;54.37695
59987;BME280;46181;51.498;5.392;2023-05-23T06:21:53;102015.9;;;18.94;54.29395
59987;BME280;46181;51.498;5.392;2023-05-23T06:26:23;102021.7;;;18.82;54.10547
59987;BME280;46181;51.498;5.392;2023-05-23T06:30:53;102022.9;;;18.77;54.07813
59987;BME280;46181;51.498;5.392;2023-05-23T06:35:23;102027.7;;;18.78;53.97656
59987;BME280;46181;51.498;5.392;2023-05-23T06:39:53;102026.4;;;18.8;53.69043
59987;BME280;46181;51.498;5.392;2023-05-23T06:44:23;102036.8;;;18.75;53.57031
59987;BME280;46181;51.498;5.392;2023-05-23T06:48:53;102046;;;18.74;53.4541
59987;BME280;46181;51.498;5.392;2023-05-23T06:53:23;102050.3;;;18.65;53.36133
59987;BME280;46181;51.498;5.392;2023-05-23T06:57:53;102059.8;;;18.54;53.28125
59987;BME280;46181;51.498;5.392;2023-05-23T07:02:23;102068.9;;;18.34;53.96777
59987;BME280;46181;51.498;5.392;2023-05-23T07:06:53;102071;;;18.28;54.04004
59987;BME280;46181;51.498;5.392;2023-05-23T07:11:23;102075.2;;;18.32;53.78125
59987;BME280;46181;51.498;5.392;2023-05-23T07:15:53;102071;;;18.33;53.2207
59987;BME280;46181;51.498;5.392;2023-05-23T07:20:23;102078.8;;;18.45;52.87988
59987;BME280;46181;51.498;5.392;2023-05-23T07:24:53;102078.4;;;18.66;51.77832
59987;BME280;46181;51.498;5.392;2023-05-23T07:29:23;102084.1;;;18.82;50.82031
59987;BME280;46181;51.498;5.392;2023-05-23T07:33:53;102084.1;;;19.01;49.51953
59987;BME280;46181;51.498;5.392;2023-05-23T07:38:23;102087.6;;;19.17;48.19043
59987;BME280;46181;51.498;5.392;2023-05-23T07:42:53;102082.8;;;19.45;48.0127
59987;BME280;46181;51.498;5.392;2023-05-23T07:47:23;102094.9;;;19.8;46.6543
59987;BME280;46181;51.498;5.392;2023-05-23T07:51:53;102086;;;19.93;45.81445
59987;BME280;46181;51.498;5.392;2023-05-23T07:56:23;102094.6;;;19.95;45.08984
59987;BME280;46181;51.498;5.392;2023-05-23T08:00:53;102094.4;;;19.97;44.95313
59987;BME280;46181;51.498;5.392;2023-05-23T08:05:23;102101.8;;;19.91;45.4668
59987;BME280;46181;51.498;5.392;2023-05-23T08:09:53;102117.4;;;20.08;45.12598
59987;BME280;46181;51.498;5.392;2023-05-23T08:14:23;102119.7;;;20.04;44.56738
59987;BME280;46181;51.498;5.392;2023-05-23T08:18:53;102118.7;;;20.12;44.4834
59987;BME280;46181;51.498;5.392;2023-05-23T08:23:23;102115.8;;;20.34;44.68945
59987;BME280;46181;51.498;5.392;2023-05-23T08:27:53;102120.2;;;20.61;44.03516
59987;BME280;46181;51.498;5.392;2023-05-23T08:32:23;102116.1;;;20.53;43.64551
59987;BME280;46181;51.498;5.392;2023-05-23T08:36:53;102119.5;;;20.41;43.80664
59987;BME280;46181;51.498;5.392;2023-05-23T08:41:26;102123.8;;;20.28;44.20996
59987;BME280;46181;51.498;5.392;2023-05-23T08:45:53;102126.5;;;20.35;44.24023
59987;BME280;46181;51.498;5.392;2023-05-23T08:50:24;102119.9;;;20.34;44.02051
59987;BME280;46181;51.498;5.392;2023-05-23T08:54:53;102127.9;;;20.56;44.55078
59987;BME280;46181;51.498;5.392;2023-05-23T08:59:24;102131.4;;;20.66;44.07422
59987;BME280;46181;51.498;5.392;2023-05-23T09:03:53;102138.5;;;20.93;44.15918
59987;BME280;46181;51.498;5.392;2023-05-23T09:08:23;102143.6;;;21.17;43.99805
59987;BME280;46181;51.498;5.392;2023-05-23T09:12:53;102149.8;;;21.39;43.72949
59987;BME280;46181;51.498;5.392;2023-05-23T09:17:23;102144.8;;;21.65;43.09375
59987;BME280;46181;51.498;5.392;2023-05-23T09:21:56;102149.3;;;21.54;43.26953
59987;BME280;46181;51.498;5.392;2023-05-23T09:26:23;102155.1;;;21.55;43.31543
59987;BME280;46181;51.498;5.392;2023-05-23T09:30:57;102164.4;;;21.62;42.84766
59987;BME280;46181;51.498;5.392;2023-05-23T09:35:23;102167.7;;;21.74;42.8125
59987;BME280;46181;51.498;5.392;2023-05-23T09:39:53;102162.9;;;21.89;41.24902
59987;BME280;46181;51.498;5.392;2023-05-23T09:44:30;102174.6;;;21.74;40.6543
59987;BME280;46181;51.498;5.392;2023-05-23T09:48:54;102172.6;;;21.36;39.7959
59987;BME280;46181;51.498;5.392;2023-05-23T09:53:23;102169.3;;;21.33;40.03711
59987;BME280;46181;51.498;5.392;2023-05-23T09:57:55;102162.3;;;21.51;39.48438
59987;BME280;46181;51.498;5.392;2023-05-23T10:02:31;102161.3;;;21.87;39.19141
59987;BME280;46181;51.498;5.392;2023-05-23T10:06:57;102167.8;;;21.92;38.63867
59987;BME280;46181;51.498;5.392;2023-05-23T10:15:53;102162.9;;;21.95;38.15234
59987;BME280;46181;51.498;5.392;2023-05-23T10:20:24;102161.8;;;22.29;37.25195
59987;BME280;46181;51.498;5.392;2023-05-23T10:24:53;102160.3;;;22.53;36.7832
59987;BME280;46181;51.498;5.392;2023-05-23T10:29:23;102169.4;;;22.66;36.39746
59987;BME280;46181;51.498;5.392;2023-05-23T10:33:59;102165.1;;;22.68;36.01563
59987;BME280;46181;51.498;5.392;2023-05-23T10:38:33;102164.6;;;22.7;35.91211
59987;BME280;46181;51.498;5.392;2023-05-23T10:43:00;102167;;;22.59;35.71582
59987;BME280;46181;51.498;5.392;2023-05-23T10:47:33;102160.8;;;22.73;35.79785
59987;BME280;46181;51.498;5.392;2023-05-23T10:51:56;102155.3;;;22.96;35.33789
59987;BME280;46181;51.498;5.392;2023-05-23T10:56:30;102153.4;;;23.09;34.77734
59987;BME280;46181;51.498;5.392;2023-05-23T11:01:00;102161.6;;;23.26;34.39258
59987;BME280;46181;51.498;5.392;2023-05-23T11:05:33;102147;;;23.27;33.93945
59987;BME280;46181;51.498;5.392;2023-05-23T11:10:07;102155.9;;;23.2;33.82813
59987;BME280;46181;51.498;5.392;2023-05-23T11:14:30;102157.8;;;23.09;33.20215
59987;BME280;46181;51.498;5.392;2023-05-23T11:18:53;102156.2;;;22.88;32.5918
59987;BME280;46181;51.498;5.392;2023-05-23T11:23:23;102152;;;22.77;33.19043
59987;BME280;46181;51.498;5.392;2023-05-23T11:27:54;102155.8;;;22.89;32.79004
59987;BME280;46181;51.498;5.392;2023-05-23T11:32:23;102146.8;;;23.24;33.18945
59987;BME280;46181;51.498;5.392;2023-05-23T11:36:55;102159.1;;;23.6;32.50391
59987;BME280;46181;51.498;5.392;2023-05-23T11:41:23;102160.3;;;23.56;32.59473
59987;BME280;46181;51.498;5.392;2023-05-23T11:45:53;102168.4;;;23.4;32.66504
59987;BME280;46181;51.498;5.392;2023-05-23T11:50:23;102152.9;;;23.42;32.33887
59987;BME280;46181;51.498;5.392;2023-05-23T11:54:53;102162.9;;;23.72;31.93945
59987;BME280;46181;51.498;5.392;2023-05-23T11:59:24;102169.2;;;23.4;31.9873
59987;BME280;46181;51.498;5.392;2023-05-23T12:03:59;102172.1;;;23.58;31.89453
59987;BME280;46181;51.498;5.392;2023-05-23T12:08:24;102167.5;;;23.93;31.61523
59987;BME280;46181;51.498;5.392;2023-05-23T12:12:53;102169.3;;;24.35;30.82617
59987;BME280;46181;51.498;5.392;2023-05-23T12:17:23;102173.7;;;24.49;30.54199
59987;BME280;46181;51.498;5.392;2023-05-23T12:21:54;102174.3;;;24.55;30.73438
59987;BME280;46181;51.498;5.392;2023-05-23T12:26:23;102180.5;;;24.54;30.19434
59987;BME280;46181;51.498;5.392;2023-05-23T12:30:53;102174.9;;;24.65;29.96777
59987;BME280;46181;51.498;5.392;2023-05-23T12:35:24;102188.8;;;24.36;29.66699
59987;BME280;46181;51.498;5.392;2023-05-23T12:39:53;102188.6;;;24.02;30.21777
59987;BME280;46181;51.498;5.392;2023-05-23T12:44:25;102189.7;;;23.85;30.59277
59987;BME280;46181;51.498;5.392;2023-05-23T12:48:53;102201.5;;;23.76;30.31836
59987;BME280;46181;51.498;5.392;2023-05-23T12:53:23;102206.6;;;24.11;29.9668
59987;BME280;46181;51.498;5.392;2023-05-23T12:57:53;102192.3;;;24.67;29.37109
59987;BME280;46181;51.498;5.392;2023-05-23T13:02:23;102201.1;;;24.9;27.86133
59987;BME280;46181;51.498;5.392;2023-05-23T13:06:53;102200.6;;;24.41;28.66309
59987;BME280;46181;51.498;5.392;2023-05-23T13:11:23;102199.6;;;24.39;29.35352
59987;BME280;46181;51.498;5.392;2023-05-23T13:15:53;102200;;;24.8;29.04004
59987;BME280;46181;51.498;5.392;2023-05-23T13:20:23;102204.3;;;24.62;28.87598
59987;BME280;46181;51.498;5.392;2023-05-23T13:24:53;102199.2;;;24.03;28.41602
59987;BME280;46181;51.498;5.392;2023-05-23T13:29:23;102196.5;;;23.55;29.04102
59987;BME280;46181;51.498;5.392;2023-05-23T13:33:53;102191.2;;;23.73;29.40234
59987;BME280;46181;51.498;5.392;2023-05-23T13:38:23;102181.6;;;24.44;28.98145
59987;BME280;46181;51.498;5.392;2023-05-23T13:42:53;102181.3;;;25.18;28.05469
59987;BME280;46181;51.498;5.392;2023-05-23T13:47:23;102185.1;;;25.02;27.98633
59987;BME280;46181;51.498;5.392;2023-05-23T13:51:53;102199.1;;;24.97;28.52246
59987;BME280;46181;51.498;5.392;2023-05-23T13:56:23;102193.7;;;24.52;29.0332
59987;BME280;46181;51.498;5.392;2023-05-23T14:00:54;102198;;;24.22;29.02539
59987;BME280;46181;51.498;5.392;2023-05-23T14:05:23;102195.3;;;23.78;29.12598
59987;BME280;46181;51.498;5.392;2023-05-23T14:09:53;102190.1;;;23.63;29.60742
59987;BME280;46181;51.498;5.392;2023-05-23T14:14:23;102189.6;;;23.43;30.09668
59987;BME280;46181;51.498;5.392;2023-05-23T14:18:53;102185.8;;;23.24;30.49219
59987;BME280;46181;51.498;5.392;2023-05-23T14:23:23;102189.7;;;23.55;30.58398
59987;BME280;46181;51.498;5.392;2023-05-23T14:27:53;102190.8;;;23.98;28.89258
59987;BME280;46181;51.498;5.392;2023-05-23T14:32:23;102195.4;;;23.84;28.90723
59987;BME280;46181;51.498;5.392;2023-05-23T14:36:53;102194.4;;;23.89;29.19141
59987;BME280;46181;51.498;5.392;2023-05-23T14:41:23;102193.9;;;24;28.25
59987;BME280;46181;51.498;5.392;2023-05-23T14:45:53;102191.8;;;24.19;27.6416
59987;BME280;46181;51.498;5.392;2023-05-23T14:50:24;102189.2;;;24.66;27.50684
59987;BME280;46181;51.498;5.392;2023-05-23T14:54:53;102193.7;;;24.54;27.46387
59987;BME280;46181;51.498;5.392;2023-05-23T14:59:23;102191.3;;;24.11;28.46777
59987;BME280;46181;51.498;5.392;2023-05-23T15:03:53;102189.9;;;23.78;29.47656
59987;BME280;46181;51.498;5.392;2023-05-23T15:08:23;102188.1;;;23.63;29.85254
59987;BME280;46181;51.498;5.392;2023-05-23T15:12:53;102185.8;;;23.83;30.29883
59987;BME280;46181;51.498;5.392;2023-05-23T15:17:24;102180.7;;;24.08;28.79395
59987;BME280;46181;51.498;5.392;2023-05-23T15:21:53;102178.9;;;24.43;28.20703
59987;BME280;46181;51.498;5.392;2023-05-23T15:26:23;102190.8;;;24.54;27.46387
59987;BME280;46181;51.498;5.392;2023-05-23T15:30:53;102186.1;;;24.07;28.24316
59987;BME280;46181;51.498;5.392;2023-05-23T15:35:23;102182.3;;;23.9;28.44238
59987;BME280;46181;51.498;5.392;2023-05-23T15:39:53;102193.9;;;24.06;28.59375
59987;BME280;46181;51.498;5.392;2023-05-23T15:44:23;102188.8;;;24.75;27.51074
59987;BME280;46181;51.498;5.392;2023-05-23T15:48:53;102200.9;;;24.43;27.43359
59987;BME280;46181;51.498;5.392;2023-05-23T15:53:23;102196.4;;;23.75;28.19922
59987;BME280;46181;51.498;5.392;2023-05-23T15:57:53;102201.9;;;23.38;29.12305
59987;BME280;46181;51.498;5.392;2023-05-23T16:02:23;102199;;;23.24;29.32422
59987;BME280;46181;51.498;5.392;2023-05-23T16:06:53;102202;;;23;29.60059
59987;BME280;46181;51.498;5.392;2023-05-23T16:11:23;102205.4;;;22.86;29.89551
59987;BME280;46181;51.498;5.392;2023-05-23T16:15:53;102201.3;;;22.45;30.3916
59987;BME280;46181;51.498;5.392;2023-05-23T16:20:23;102201.7;;;22.13;30.39355
59987;BME280;46181;51.498;5.392;2023-05-23T16:24:53;102199.3;;;22.08;30.08691
59987;BME280;46181;51.498;5.392;2023-05-23T16:29:23;102202.5;;;22.04;30.42285
59987;BME280;46181;51.498;5.392;2023-05-23T16:33:53;102201.8;;;21.95;30.25293
59987;BME280;46181;51.498;5.392;2023-05-23T16:38:23;102196.3;;;21.76;30.67188
59987;BME280;46181;51.498;5.392;2023-05-23T16:42:53;102198.4;;;21.52;30.99121
59987;BME280;46181;51.498;5.392;2023-05-23T16:47:26;102202;;;21.36;31.43457
59987;BME280;46181;51.498;5.392;2023-05-23T16:51:53;102198.8;;;21.42;31.48535
59987;BME280;46181;51.498;5.392;2023-05-23T16:56:23;102199.3;;;21.5;31.12988
59987;BME280;46181;51.498;5.392;2023-05-23T17:00:53;102200;;;21.4;30.96094
59987;BME280;46181;51.498;5.392;2023-05-23T17:05:23;102197.9;;;21.15;31.37305
59987;BME280;46181;51.498;5.392;2023-05-23T17:09:53;102204.6;;;20.83;32.09375
59987;BME280;46181;51.498;5.392;2023-05-23T17:14:23;102203.3;;;20.6;32.58789
59987;BME280;46181;51.498;5.392;2023-05-23T17:18:53;102206.5;;;20.42;33.2002
59987;BME280;46181;51.498;5.392;2023-05-23T17:27:53;102216.4;;;20.09;33.25781
59987;BME280;46181;51.498;5.392;2023-05-23T17:37:37;102216.2;;;19.99;33.54004
59987;BME280;46181;51.498;5.392;2023-05-23T17:41:24;102214.3;;;19.98;33.20215
59987;BME280;46181;51.498;5.392;2023-05-23T17:45:53;102211;;;19.83;32.96094
59987;BME280;46181;51.498;5.392;2023-05-23T17:50:24;102210.9;;;19.71;31.82813
59987;BME280;46181;51.498;5.392;2023-05-23T17:54:54;102217.2;;;19.61;32.04102
59987;BME280;46181;51.498;5.392;2023-05-23T17:59:24;102215.1;;;19.57;32.29199
59987;BME280;46181;51.498;5.392;2023-05-23T18:03:54;102220.4;;;19.53;31.93066
59987;BME280;46181;51.498;5.392;2023-05-23T18:08:24;102238.3;;;19.38;32.48633
59987;BME280;46181;51.498;5.392;2023-05-23T18:12:59;102230.9;;;19.25;33.11426
59987;BME280;46181;51.498;5.392;2023-05-23T18:17:23;102236.2;;;19.2;33.57227
59987;BME280;46181;51.498;5.392;2023-05-23T18:21:55;102237.2;;;19.06;33.74707
59987;BME280;46181;51.498;5.392;2023-05-23T18:26:23;102246.1;;;19.04;33.81543
59987;BME280;46181;51.498;5.392;2023-05-23T18:30:54;102248.5;;;18.88;33.51367
59987;BME280;46181;51.498;5.392;2023-05-23T18:35:24;102252.2;;;18.75;33.49219
59987;BME280;46181;51.498;5.392;2023-05-23T18:39:54;102253.8;;;18.64;33.62207
59987;BME280;46181;51.498;5.392;2023-05-23T18:44:26;102249.9;;;18.53;34.03027
59987;BME280;46181;51.498;5.392;2023-05-23T18:48:54;102244.4;;;18.46;34.625
59987;BME280;46181;51.498;5.392;2023-05-23T18:53:24;102256.5;;;18.4;34.97754
59987;BME280;46181;51.498;5.392;2023-05-23T18:57:54;102245.4;;;18.17;35.43262
59987;BME280;46181;51.498;5.392;2023-05-23T19:02:24;102255.3;;;18.01;35.90332
59987;BME280;46181;51.498;5.392;2023-05-23T19:06:53;102262.8;;;17.92;36.18457
59987;BME280;46181;51.498;5.392;2023-05-23T19:11:24;102266.5;;;17.83;36.54492
59987;BME280;46181;51.498;5.392;2023-05-23T19:15:54;102277.1;;;17.74;36.72168
59987;BME280;46181;51.498;5.392;2023-05-23T19:20:24;102283.4;;;17.63;36.93164
59987;BME280;46181;51.498;5.392;2023-05-23T19:24:53;102286.6;;;17.49;37.07031
59987;BME280;46181;51.498;5.392;2023-05-23T19:29:24;102299.4;;;17.37;37.42773
59987;BME280;46181;51.498;5.392;2023-05-23T19:33:54;102303.8;;;17.3;37.7207
59987;BME280;46181;51.498;5.392;2023-05-23T19:38:24;102299.6;;;17.19;38.14941
59987;BME280;46181;51.498;5.392;2023-05-23T19:42:54;102314.8;;;17.06;38.4248
59987;BME280;46181;51.498;5.392;2023-05-23T19:47:24;102324.2;;;16.97;38.75
59987;BME280;46181;51.498;5.392;2023-05-23T19:51:53;102321;;;16.86;39.09668
59987;BME280;46181;51.498;5.392;2023-05-23T19:56:24;102323.4;;;16.74;39.46387
59987;BME280;46181;51.498;5.392;2023-05-23T20:00:53;102330.4;;;16.65;39.82422
59987;BME280;46181;51.498;5.392;2023-05-23T20:05:24;102331.8;;;16.59;40.12793
59987;BME280;46181;51.498;5.392;2023-05-23T20:09:54;102344.6;;;16.53;40.36426
59987;BME280;46181;51.498;5.392;2023-05-23T20:14:23;102350.1;;;16.41;40.70801
59987;BME280;46181;51.498;5.392;2023-05-23T20:18:54;102355.8;;;16.36;41.0127
59987;BME280;46181;51.498;5.392;2023-05-23T20:23:23;102357.1;;;16.3;41.32813
59987;BME280;46181;51.498;5.392;2023-05-23T20:27:54;102362.7;;;16.21;41.51367
59987;BME280;46181;51.498;5.392;2023-05-23T20:32:23;102366.6;;;16.15;41.64746
59987;BME280;46181;51.498;5.392;2023-05-23T20:36:54;102367.6;;;16.08;41.99512
59987;BME280;46181;51.498;5.392;2023-05-23T20:41:24;102377.4;;;15.99;42.00977
59987;BME280;46181;51.498;5.392;2023-05-23T20:45:54;102376.2;;;15.96;42.25879
59987;BME280;46181;51.498;5.392;2023-05-23T20:50:24;102367.8;;;15.89;42.38965
59987;BME280;46181;51.498;5.392;2023-05-23T20:54:54;102367.1;;;15.83;42.52148
59987;BME280;46181;51.498;5.392;2023-05-23T20:59:24;102365.1;;;15.79;42.80273
59987;BME280;46181;51.498;5.392;2023-05-23T21:03:54;102364.9;;;15.76;42.95996
59987;BME280;46181;51.498;5.392;2023-05-23T21:08:24;102358.3;;;15.71;43.14941
59987;BME280;46181;51.498;5.392;2023-05-23T21:12:53;102354.8;;;15.63;43.2793
59987;BME280;46181;51.498;5.392;2023-05-23T21:17:24;102360.5;;;15.6;43.52832
59987;BME280;46181;51.498;5.392;2023-05-23T21:21:54;102361.5;;;15.53;43.66895
59987;BME280;46181;51.498;5.392;2023-05-23T21:26:23;102358.8;;;15.5;43.78223
59987;BME280;46181;51.498;5.392;2023-05-23T21:30:54;102360.2;;;15.46;44.00586
59987;BME280;46181;51.498;5.392;2023-05-23T21:35:24;102366.6;;;15.46;44.02832
59987;BME280;46181;51.498;5.392;2023-05-23T21:39:54;102369.5;;;15.39;44.21484
59987;BME280;46181;51.498;5.392;2023-05-23T21:44:25;102367.1;;;15.34;44.33594
59987;BME280;46181;51.498;5.392;2023-05-23T21:48:55;102365.3;;;15.31;44.4834
59987;BME280;46181;51.498;5.392;2023-05-23T21:53:25;102371.1;;;15.28;44.58105
59987;BME280;46181;51.498;5.392;2023-05-23T21:57:55;102359.2;;;15.23;44.69141
59987;BME280;46181;51.498;5.392;2023-05-23T22:02:25;102364.7;;;15.2;44.80176
59987;BME280;46181;51.498;5.392;2023-05-23T22:06:55;102369;;;15.16;44.90039
59987;BME280;46181;51.498;5.392;2023-05-23T22:11:25;102362;;;15.1;45.00977
59987;BME280;46181;51.498;5.392;2023-05-23T22:15:54;102355.7;;;15.04;45.05957
59987;BME280;46181;51.498;5.392;2023-05-23T22:20:24;102356.5;;;14.99;45.2041
59987;BME280;46181;51.498;5.392;2023-05-23T22:24:54;102366.6;;;14.93;45.49414
59987;BME280;46181;51.498;5.392;2023-05-23T22:29:24;102369.6;;;14.86;45.55469
59987;BME280;46181;51.498;5.392;2023-05-23T22:33:57;102369.9;;;14.77;45.64941
59987;BME280;46181;51.498;5.392;2023-05-23T22:38:24;102372.7;;;14.71;45.84668
59987;BME280;46181;51.498;5.392;2023-05-23T22:42:54;102378.3;;;14.63;45.75879
59987;BME280;46181;51.498;5.392;2023-05-23T22:47:24;102371.9;;;14.54;45.93262
59987;BME280;46181;51.498;5.392;2023-05-23T22:51:56;102377.4;;;14.41;46.14648
59987;BME280;46181;51.498;5.392;2023-05-23T22:56:24;102373.8;;;14.33;46.52539
59987;BME280;46181;51.498;5.392;2023-05-23T23:00:54;102376.9;;;14.25;46.4834
59987;BME280;46181;51.498;5.392;2023-05-23T23:05:24;102372.5;;;14.15;46.64355
59987;BME280;46181;51.498;5.392;2023-05-23T23:09:54;102368.8;;;14.1;46.7627
59987;BME280;46181;51.498;5.392;2023-05-23T23:14:24;102364.8;;;13.99;46.85352
59987;BME280;46181;51.498;5.392;2023-05-23T23:18:54;102361.9;;;13.91;46.95996